sensor_id;sensor_type;location;lat;lon;timestamp;temperature;humidity
17208;DHT22;8720;48.488;9.202;2023-07-29T00:00:47;19.90;77.20
17208;DHT22;8720;48.488;9.202;2023-07-29T00:03:14;19.90;77.40
17208;DHT22;8720;48.488;9.202;2023-07-29T00:05:42;19.90;77.20
17208;DHT22;8720;48.488;9.202;2023-07-29T00:08:09;19.90;77.30
17208;DHT22;8720;48.488;9.202;2023-07-29T00:10:37;20.00;77.40
17208;DHT22;8720;48.488;9.202;2023-07-29T00:13:05;20.00;77.50
17208;DHT22;8720;48.488;9.202;2023-07-29T00:15:33;20.00;77.50
17208;DHT22;8720;48.488;9.202;2023-07-29T00:18:03;20.00;77.50
17208;DHT22;8720;48.488;9.202;2023-07-29T00:20:30;20.00;77.50
17208;DHT22;8720;48.488;9.202;2023-07-29T00:22:58;20.10;77.60
17208;DHT22;8720;48.488;9.202;2023-07-29T00:25:25;20.10;77.60
17208;DHT22;8720;48.488;9.202;2023-07-29T00:27:55;20.10;77.60
17208;DHT22;8720;48.488;9.202;2023-07-29T00:30:23;20.10;77.40
17208;DHT22;8720;48.488;9.202;2023-07-29T00:32:51;20.10;77.60
17208;DHT22;8720;48.488;9.202;2023-07-29T00:35:18;20.10;77.40
17208;DHT22;8720;48.488;9.202;2023-07-29T00:37:46;20.10;77.50
17208;DHT22;8720;48.488;9.202;2023-07-29T00:40:15;20.10;77.30
17208;DHT22;8720;48.488;9.202;2023-07-29T00:42:47;20.20;77.30
17208;DHT22;8720;48.488;9.202;2023-07-29T00:45:16;20.20;77.30
17208;DHT22;8720;48.488;9.202;2023-07-29T00:47:44;20.20;77.40
17208;DHT22;8720;48.488;9.202;2023-07-29T00:50:13;20.20;77.20
17208;DHT22;8720;48.488;9.202;2023-07-29T00:52:42;20.20;77.20
17208;DHT22;8720;48.488;9.202;2023-07-29T00:55:09;20.20;77.30
17208;DHT22;8720;48.488;9.202;2023-07-29T00:57:37;20.20;77.60
17208;DHT22;8720;48.488;9.202;2023-07-29T01:00:06;20.20;78.00
17208;DHT22;8720;48.488;9.202;2023-07-29T01:02:35;20.20;78.00
17208;DHT22;8720;48.488;9.202;2023-07-29T01:05:03;20.20;78.00
17208;DHT22;8720;48.488;9.202;2023-07-29T01:07:37;20.20;78.10
17208;DHT22;8720;48.488;9.202;2023-07-29T01:10:31;20.20;77.70
17208;DHT22;8720;48.488;9.202;2023-07-29T01:13:16;20.20;77.50
17208;DHT22;8720;48.488;9.202;2023-07-29T01:15:50;20.20;77.30
17208;DHT22;8720;48.488;9.202;2023-07-29T01:18:23;20.20;77.70
17208;DHT22;8720;48.488;9.202;2023-07-29T01:21:01;20.20;77.50
17208;DHT22;8720;48.488;9.202;2023-07-29T01:23:33;20.20;77.70
17208;DHT22;8720;48.488;9.202;2023-07-29T01:26:02;20.20;77.90
17208;DHT22;8720;48.488;9.202;2023-07-29T01:28:30;20.20;78.10
17208;DHT22;8720;48.488;9.202;2023-07-29T01:31:13;20.20;78.30
17208;DHT22;8720;48.488;9.202;2023-07-29T01:33:52;20.20;78.10
17208;DHT22;8720;48.488;9.202;2023-07-29T01:36:28;20.20;78.10
17208;DHT22;8720;48.488;9.202;2023-07-29T01:39:00;20.20;78.40
17208;DHT22;8720;48.488;9.202;2023-07-29T01:41:29;20.20;78.40
17208;DHT22;8720;48.488;9.202;2023-07-29T01:43:57;20.20;78.40
17208;DHT22;8720;48.488;9.202;2023-07-29T01:46:25;20.10;78.30
17208;DHT22;8720;48.488;9.202;2023-07-29T01:48:52;20.10;78.40
17208;DHT22;8720;48.488;9.202;2023-07-29T01:51:20;20.20;78.70
17208;DHT22;8720;48.488;9.202;2023-07-29T01:53:47;20.10;78.70
17208;DHT22;8720;48.488;9.202;2023-07-29T01:56:17;20.10;78.70
17208;DHT22;8720;48.488;9.202;2023-07-29T01:58:52;20.10;79.30
17208;DHT22;8720;48.488;9.202;2023-07-29T02:03:55;20.10;78.70
17208;DHT22;8720;48.488;9.202;2023-07-29T02:06:23;20.10;78.50
17208;DHT22;8720;48.488;9.202;2023-07-29T02:08:53;20.00;78.20
17208;DHT22;8720;48.488;9.202;2023-07-29T02:11:23;20.00;78.10
17208;DHT22;8720;48.488;9.202;2023-07-29T02:13:53;20.00;77.90
17208;DHT22;8720;48.488;9.202;2023-07-29T02:16:20;20.00;77.80
17208;DHT22;8720;48.488;9.202;2023-07-29T02:18:49;19.90;77.70
17208;DHT22;8720;48.488;9.202;2023-07-29T02:21:17;19.90;77.70
17208;DHT22;8720;48.488;9.202;2023-07-29T02:23:44;19.90;77.60
17208;DHT22;8720;48.488;9.202;2023-07-29T02:26:12;19.80;77.40
17208;DHT22;8720;48.488;9.202;2023-07-29T02:28:40;19.80;77.40
17208;DHT22;8720;48.488;9.202;2023-07-29T02:31:15;19.80;77.20
17208;DHT22;8720;48.488;9.202;2023-07-29T02:33:45;19.70;77.10
17208;DHT22;8720;48.488;9.202;2023-07-29T02:36:13;19.70;77.40
17208;DHT22;8720;48.488;9.202;2023-07-29T02:38:41;19.60;77.40
17208;DHT22;8720;48.488;9.202;2023-07-29T02:41:10;19.60;78.40
17208;DHT22;8720;48.488;9.202;2023-07-29T02:43:41;19.50;77.80
17208;DHT22;8720;48.488;9.202;2023-07-29T02:46:09;19.50;77.90
17208;DHT22;8720;48.488;9.202;2023-07-29T02:48:37;19.50;78.20
17208;DHT22;8720;48.488;9.202;2023-07-29T02:51:04;19.50;78.50
17208;DHT22;8720;48.488;9.202;2023-07-29T02:53:31;19.50;78.80
17208;DHT22;8720;48.488;9.202;2023-07-29T02:55:59;19.40;78.90
17208;DHT22;8720;48.488;9.202;2023-07-29T02:58:26;19.40;79.20
17208;DHT22;8720;48.488;9.202;2023-07-29T03:01:00;19.40;79.50
17208;DHT22;8720;48.488;9.202;2023-07-29T03:03:28;19.40;79.60
17208;DHT22;8720;48.488;9.202;2023-07-29T03:06:07;19.40;79.90
17208;DHT22;8720;48.488;9.202;2023-07-29T03:08:35;19.50;80.10
17208;DHT22;8720;48.488;9.202;2023-07-29T03:11:06;19.50;80.00
17208;DHT22;8720;48.488;9.202;2023-07-29T03:13:34;19.50;80.00
17208;DHT22;8720;48.488;9.202;2023-07-29T03:16:07;19.50;80.00
17208;DHT22;8720;48.488;9.202;2023-07-29T03:18:37;19.50;80.00
17208;DHT22;8720;48.488;9.202;2023-07-29T03:21:05;19.50;80.10
17208;DHT22;8720;48.488;9.202;2023-07-29T03:23:33;19.40;80.20
17208;DHT22;8720;48.488;9.202;2023-07-29T03:26:02;19.50;80.40
17208;DHT22;8720;48.488;9.202;2023-07-29T03:28:38;19.50;80.70
17208;DHT22;8720;48.488;9.202;2023-07-29T03:31:07;19.50;80.90
17208;DHT22;8720;48.488;9.202;2023-07-29T03:33:35;19.50;80.90
17208;DHT22;8720;48.488;9.202;2023-07-29T03:36:02;19.50;81.00
17208;DHT22;8720;48.488;9.202;2023-07-29T03:38:30;19.50;81.10
17208;DHT22;8720;48.488;9.202;2023-07-29T03:40:58;19.50;81.20
17208;DHT22;8720;48.488;9.202;2023-07-29T03:43:28;19.50;81.20
17208;DHT22;8720;48.488;9.202;2023-07-29T03:45:57;19.50;81.20
17208;DHT22;8720;48.488;9.202;2023-07-29T03:48:26;19.50;81.30
17208;DHT22;8720;48.488;9.202;2023-07-29T03:50:54;19.60;81.20
17208;DHT22;8720;48.488;9.202;2023-07-29T03:53:21;19.60;81.30
17208;DHT22;8720;48.488;9.202;2023-07-29T03:55:48;19.60;81.20
17208;DHT22;8720;48.488;9.202;2023-07-29T03:58:16;19.60;81.20
17208;DHT22;8720;48.488;9.202;2023-07-29T04:00:44;19.60;81.10
17208;DHT22;8720;48.488;9.202;2023-07-29T04:03:11;19.60;81.40
17208;DHT22;8720;48.488;9.202;2023-07-29T04:05:39;19.60;81.50
17208;DHT22;8720;48.488;9.202;2023-07-29T04:08:07;19.60;81.50
17208;DHT22;8720;48.488;9.202;2023-07-29T04:10:34;19.60;81.20
17208;DHT22;8720;48.488;9.202;2023-07-29T04:13:03;19.60;81.10
17208;DHT22;8720;48.488;9.202;2023-07-29T04:15:30;19.60;81.00
17208;DHT22;8720;48.488;9.202;2023-07-29T04:17:58;19.60;81.10
17208;DHT22;8720;48.488;9.202;2023-07-29T04:20:25;19.60;81.10
17208;DHT22;8720;48.488;9.202;2023-07-29T04:22:53;19.60;81.20
17208;DHT22;8720;48.488;9.202;2023-07-29T04:25:21;19.70;81.10
17208;DHT22;8720;48.488;9.202;2023-07-29T04:27:48;19.70;81.30
17208;DHT22;8720;48.488;9.202;2023-07-29T04:30:15;19.70;81.40
17208;DHT22;8720;48.488;9.202;2023-07-29T04:32:43;19.70;81.60
17208;DHT22;8720;48.488;9.202;2023-07-29T04:35:10;19.70;81.90
17208;DHT22;8720;48.488;9.202;2023-07-29T04:37:37;19.70;81.80
17208;DHT22;8720;48.488;9.202;2023-07-29T04:40:07;19.70;81.90
17208;DHT22;8720;48.488;9.202;2023-07-29T04:42:36;19.80;82.10
17208;DHT22;8720;48.488;9.202;2023-07-29T04:45:04;19.80;82.80
17208;DHT22;8720;48.488;9.202;2023-07-29T04:47:32;19.80;83.60
17208;DHT22;8720;48.488;9.202;2023-07-29T04:50:00;19.90;84.20
17208;DHT22;8720;48.488;9.202;2023-07-29T04:52:27;19.90;84.20
17208;DHT22;8720;48.488;9.202;2023-07-29T04:54:54;20.00;84.50
17208;DHT22;8720;48.488;9.202;2023-07-29T04:57:23;20.10;84.20
17208;DHT22;8720;48.488;9.202;2023-07-29T04:59:50;20.20;83.00
17208;DHT22;8720;48.488;9.202;2023-07-29T05:02:17;20.30;82.80
17208;DHT22;8720;48.488;9.202;2023-07-29T05:04:44;20.30;82.00
17208;DHT22;8720;48.488;9.202;2023-07-29T05:07:12;20.40;81.40
17208;DHT22;8720;48.488;9.202;2023-07-29T05:09:39;20.40;80.90
17208;DHT22;8720;48.488;9.202;2023-07-29T05:12:07;20.40;80.40
17208;DHT22;8720;48.488;9.202;2023-07-29T05:14:36;20.40;80.10
17208;DHT22;8720;48.488;9.202;2023-07-29T05:17:04;20.40;78.80
17208;DHT22;8720;48.488;9.202;2023-07-29T05:19:32;20.40;78.30
17208;DHT22;8720;48.488;9.202;2023-07-29T05:21:59;20.40;78.40
17208;DHT22;8720;48.488;9.202;2023-07-29T05:24:27;20.30;78.40
17208;DHT22;8720;48.488;9.202;2023-07-29T05:26:56;20.30;78.60
17208;DHT22;8720;48.488;9.202;2023-07-29T05:29:23;20.30;78.80
17208;DHT22;8720;48.488;9.202;2023-07-29T05:31:52;20.30;78.70
17208;DHT22;8720;48.488;9.202;2023-07-29T05:34:20;20.30;78.50
17208;DHT22;8720;48.488;9.202;2023-07-29T05:36:47;20.30;78.80
17208;DHT22;8720;48.488;9.202;2023-07-29T05:39:14;20.30;79.20
17208;DHT22;8720;48.488;9.202;2023-07-29T05:41:42;20.30;79.50
17208;DHT22;8720;48.488;9.202;2023-07-29T05:44:09;20.30;79.40
17208;DHT22;8720;48.488;9.202;2023-07-29T05:46:36;20.30;79.60
17208;DHT22;8720;48.488;9.202;2023-07-29T05:49:05;20.30;80.10
17208;DHT22;8720;48.488;9.202;2023-07-29T05:51:32;20.40;80.90
17208;DHT22;8720;48.488;9.202;2023-07-29T05:53:59;20.50;82.50
17208;DHT22;8720;48.488;9.202;2023-07-29T05:56:26;20.60;82.90
17208;DHT22;8720;48.488;9.202;2023-07-29T05:58:54;20.70;82.20
17208;DHT22;8720;48.488;9.202;2023-07-29T06:01:21;20.80;82.70
17208;DHT22;8720;48.488;9.202;2023-07-29T06:03:48;21.00;82.10
17208;DHT22;8720;48.488;9.202;2023-07-29T06:06:17;21.20;81.20
17208;DHT22;8720;48.488;9.202;2023-07-29T06:08:44;21.30;80.50
17208;DHT22;8720;48.488;9.202;2023-07-29T06:11:11;21.50;83.20
17208;DHT22;8720;48.488;9.202;2023-07-29T06:13:39;21.70;84.50
17208;DHT22;8720;48.488;9.202;2023-07-29T06:16:06;22.00;82.70
17208;DHT22;8720;48.488;9.202;2023-07-29T06:18:34;22.30;80.90
17208;DHT22;8720;48.488;9.202;2023-07-29T06:21:02;22.60;78.10
17208;DHT22;8720;48.488;9.202;2023-07-29T06:23:34;22.90;77.50
17208;DHT22;8720;48.488;9.202;2023-07-29T06:26:02;23.10;75.60
17208;DHT22;8720;48.488;9.202;2023-07-29T06:28:29;23.20;74.80
17208;DHT22;8720;48.488;9.202;2023-07-29T06:30:56;23.30;73.80
17208;DHT22;8720;48.488;9.202;2023-07-29T06:33:23;23.40;73.50
17208;DHT22;8720;48.488;9.202;2023-07-29T06:35:50;23.40;73.70
17208;DHT22;8720;48.488;9.202;2023-07-29T06:38:18;23.40;73.10
17208;DHT22;8720;48.488;9.202;2023-07-29T06:40:48;23.50;72.80
17208;DHT22;8720;48.488;9.202;2023-07-29T06:43:16;23.50;72.70
17208;DHT22;8720;48.488;9.202;2023-07-29T06:45:43;23.50;73.30
17208;DHT22;8720;48.488;9.202;2023-07-29T06:48:11;23.60;73.90
17208;DHT22;8720;48.488;9.202;2023-07-29T06:50:38;23.80;73.10
17208;DHT22;8720;48.488;9.202;2023-07-29T06:53:06;23.90;72.70
17208;DHT22;8720;48.488;9.202;2023-07-29T06:55:33;24.00;72.10
17208;DHT22;8720;48.488;9.202;2023-07-29T06:58:02;24.10;71.90
17208;DHT22;8720;48.488;9.202;2023-07-29T07:00:29;24.10;71.00
17208;DHT22;8720;48.488;9.202;2023-07-29T07:02:56;24.10;70.70
17208;DHT22;8720;48.488;9.202;2023-07-29T07:05:23;24.10;70.50
17208;DHT22;8720;48.488;9.202;2023-07-29T07:07:51;24.00;70.40
17208;DHT22;8720;48.488;9.202;2023-07-29T07:10:18;23.90;70.30
17208;DHT22;8720;48.488;9.202;2023-07-29T07:12:46;23.80;70.30
17208;DHT22;8720;48.488;9.202;2023-07-29T07:15:14;23.60;70.40
17208;DHT22;8720;48.488;9.202;2023-07-29T07:17:42;23.50;70.60
17208;DHT22;8720;48.488;9.202;2023-07-29T07:20:12;23.30;70.90
17208;DHT22;8720;48.488;9.202;2023-07-29T07:22:39;23.20;71.20
17208;DHT22;8720;48.488;9.202;2023-07-29T07:25:07;23.00;71.60
17208;DHT22;8720;48.488;9.202;2023-07-29T07:27:35;22.90;72.10
17208;DHT22;8720;48.488;9.202;2023-07-29T07:30:03;22.70;73.30
17208;DHT22;8720;48.488;9.202;2023-07-29T07:32:32;22.60;73.60
17208;DHT22;8720;48.488;9.202;2023-07-29T07:34:59;22.60;74.20
17208;DHT22;8720;48.488;9.202;2023-07-29T07:37:27;22.50;74.40
17208;DHT22;8720;48.488;9.202;2023-07-29T07:39:54;22.50;75.00
17208;DHT22;8720;48.488;9.202;2023-07-29T07:42:21;22.40;75.70
17208;DHT22;8720;48.488;9.202;2023-07-29T07:44:48;22.40;76.40
17208;DHT22;8720;48.488;9.202;2023-07-29T07:47:16;22.40;76.50
17208;DHT22;8720;48.488;9.202;2023-07-29T07:49:44;22.40;76.60
17208;DHT22;8720;48.488;9.202;2023-07-29T07:52:11;22.40;75.90
17208;DHT22;8720;48.488;9.202;2023-07-29T07:54:39;22.50;76.10
17208;DHT22;8720;48.488;9.202;2023-07-29T07:57:06;22.50;76.50
17208;DHT22;8720;48.488;9.202;2023-07-29T07:59:33;22.50;76.40
17208;DHT22;8720;48.488;9.202;2023-07-29T08:02:00;22.50;75.80
17208;DHT22;8720;48.488;9.202;2023-07-29T08:04:28;22.50;76.00
17208;DHT22;8720;48.488;9.202;2023-07-29T08:06:56;22.50;76.60
17208;DHT22;8720;48.488;9.202;2023-07-29T08:09:23;22.50;76.10
17208;DHT22;8720;48.488;9.202;2023-07-29T08:11:51;22.50;76.50
17208;DHT22;8720;48.488;9.202;2023-07-29T08:14:18;22.50;77.80
17208;DHT22;8720;48.488;9.202;2023-07-29T08:16:46;22.50;77.70
17208;DHT22;8720;48.488;9.202;2023-07-29T08:19:13;22.50;77.90
17208;DHT22;8720;48.488;9.202;2023-07-29T08:21:40;22.50;77.80
17208;DHT22;8720;48.488;9.202;2023-07-29T08:24:09;22.50;77.90
17208;DHT22;8720;48.488;9.202;2023-07-29T08:26:36;22.60;77.50
17208;DHT22;8720;48.488;9.202;2023-07-29T08:29:04;22.60;78.20
17208;DHT22;8720;48.488;9.202;2023-07-29T08:31:31;22.60;78.40
17208;DHT22;8720;48.488;9.202;2023-07-29T08:34:02;22.60;78.50
17208;DHT22;8720;48.488;9.202;2023-07-29T08:36:29;22.60;79.10
17208;DHT22;8720;48.488;9.202;2023-07-29T08:38:56;22.60;79.60
17208;DHT22;8720;48.488;9.202;2023-07-29T08:41:29;22.70;79.30
17208;DHT22;8720;48.488;9.202;2023-07-29T08:44:06;22.70;78.80
17208;DHT22;8720;48.488;9.202;2023-07-29T08:46:39;22.70;78.40
17208;DHT22;8720;48.488;9.202;2023-07-29T08:49:07;22.60;78.60
17208;DHT22;8720;48.488;9.202;2023-07-29T08:51:35;22.60;78.80
17208;DHT22;8720;48.488;9.202;2023-07-29T08:54:03;22.60;79.20
17208;DHT22;8720;48.488;9.202;2023-07-29T08:56:32;22.50;79.20
17208;DHT22;8720;48.488;9.202;2023-07-29T08:59:00;22.50;79.60
17208;DHT22;8720;48.488;9.202;2023-07-29T09:01:30;22.40;80.80
17208;DHT22;8720;48.488;9.202;2023-07-29T09:03:57;22.40;82.90
17208;DHT22;8720;48.488;9.202;2023-07-29T09:06:25;22.40;84.40
17208;DHT22;8720;48.488;9.202;2023-07-29T09:08:54;22.50;87.40
17208;DHT22;8720;48.488;9.202;2023-07-29T09:11:22;22.60;89.60
17208;DHT22;8720;48.488;9.202;2023-07-29T09:13:51;22.80;91.00
17208;DHT22;8720;48.488;9.202;2023-07-29T09:16:20;23.00;90.70
17208;DHT22;8720;48.488;9.202;2023-07-29T09:18:48;23.20;92.00
17208;DHT22;8720;48.488;9.202;2023-07-29T09:21:17;23.50;91.60
17208;DHT22;8720;48.488;9.202;2023-07-29T09:23:45;23.70;91.80
17208;DHT22;8720;48.488;9.202;2023-07-29T09:26:12;24.00;92.00
17208;DHT22;8720;48.488;9.202;2023-07-29T09:28:40;24.30;92.70
17208;DHT22;8720;48.488;9.202;2023-07-29T09:31:19;24.50;90.50
17208;DHT22;8720;48.488;9.202;2023-07-29T09:33:46;24.80;87.60
17208;DHT22;8720;48.488;9.202;2023-07-29T09:36:14;25.00;88.70
17208;DHT22;8720;48.488;9.202;2023-07-29T09:38:42;25.20;85.40
17208;DHT22;8720;48.488;9.202;2023-07-29T09:41:12;25.40;83.30
17208;DHT22;8720;48.488;9.202;2023-07-29T09:43:42;25.60;83.70
17208;DHT22;8720;48.488;9.202;2023-07-29T09:46:11;25.80;85.00
17208;DHT22;8720;48.488;9.202;2023-07-29T09:48:38;26.00;82.60
17208;DHT22;8720;48.488;9.202;2023-07-29T09:51:10;26.10;82.80
17208;DHT22;8720;48.488;9.202;2023-07-29T09:53:42;26.30;79.40
17208;DHT22;8720;48.488;9.202;2023-07-29T09:56:12;26.40;76.00
17208;DHT22;8720;48.488;9.202;2023-07-29T09:58:40;26.50;77.50
17208;DHT22;8720;48.488;9.202;2023-07-29T10:01:12;26.60;77.00
17208;DHT22;8720;48.488;9.202;2023-07-29T10:03:40;26.70;74.80
17208;DHT22;8720;48.488;9.202;2023-07-29T10:06:09;26.80;74.40
17208;DHT22;8720;48.488;9.202;2023-07-29T10:08:37;26.90;72.80
17208;DHT22;8720;48.488;9.202;2023-07-29T10:11:07;26.90;71.30
17208;DHT22;8720;48.488;9.202;2023-07-29T10:13:35;27.10;71.20
17208;DHT22;8720;48.488;9.202;2023-07-29T10:16:04;27.10;70.10
17208;DHT22;8720;48.488;9.202;2023-07-29T10:18:34;27.20;69.70
17208;DHT22;8720;48.488;9.202;2023-07-29T10:21:02;27.30;68.00
17208;DHT22;8720;48.488;9.202;2023-07-29T10:23:34;27.40;67.70
17208;DHT22;8720;48.488;9.202;2023-07-29T10:26:10;27.50;66.10
17208;DHT22;8720;48.488;9.202;2023-07-29T10:28:41;27.50;64.50
17208;DHT22;8720;48.488;9.202;2023-07-29T10:31:15;27.50;63.90
17208;DHT22;8720;48.488;9.202;2023-07-29T10:33:44;27.60;63.70
17208;DHT22;8720;48.488;9.202;2023-07-29T10:36:12;27.60;63.10
17208;DHT22;8720;48.488;9.202;2023-07-29T10:38:40;27.70;64.50
17208;DHT22;8720;48.488;9.202;2023-07-29T10:41:08;27.70;64.10
17208;DHT22;8720;48.488;9.202;2023-07-29T10:43:36;27.80;63.80
17208;DHT22;8720;48.488;9.202;2023-07-29T10:46:17;27.90;63.20
17208;DHT22;8720;48.488;9.202;2023-07-29T10:48:54;27.90;61.50
17208;DHT22;8720;48.488;9.202;2023-07-29T10:51:27;28.00;60.50
17208;DHT22;8720;48.488;9.202;2023-07-29T10:54:00;28.00;61.10
17208;DHT22;8720;48.488;9.202;2023-07-29T10:56:30;28.00;60.10
17208;DHT22;8720;48.488;9.202;2023-07-29T10:59:30;28.10;60.00
17208;DHT22;8720;48.488;9.202;2023-07-29T11:02:00;28.10;58.50
17208;DHT22;8720;48.488;9.202;2023-07-29T11:04:30;28.10;60.10
17208;DHT22;8720;48.488;9.202;2023-07-29T11:07:22;28.10;59.30
17208;DHT22;8720;48.488;9.202;2023-07-29T11:09:57;28.20;57.90
17208;DHT22;8720;48.488;9.202;2023-07-29T11:12:43;28.20;58.30
17208;DHT22;8720;48.488;9.202;2023-07-29T11:15:18;28.30;56.60
17208;DHT22;8720;48.488;9.202;2023-07-29T11:17:49;28.40;57.30
17208;DHT22;8720;48.488;9.202;2023-07-29T11:20:21;28.40;57.90
17208;DHT22;8720;48.488;9.202;2023-07-29T11:22:49;28.40;56.70
17208;DHT22;8720;48.488;9.202;2023-07-29T11:25:18;28.50;57.50
17208;DHT22;8720;48.488;9.202;2023-07-29T11:27:46;28.50;57.20
17208;DHT22;8720;48.488;9.202;2023-07-29T11:30:15;28.50;57.20
17208;DHT22;8720;48.488;9.202;2023-07-29T11:32:43;28.50;56.60
17208;DHT22;8720;48.488;9.202;2023-07-29T11:35:14;28.50;55.90
17208;DHT22;8720;48.488;9.202;2023-07-29T11:37:46;28.50;55.10
17208;DHT22;8720;48.488;9.202;2023-07-29T11:40:15;28.40;54.50
17208;DHT22;8720;48.488;9.202;2023-07-29T11:42:43;28.40;55.40
17208;DHT22;8720;48.488;9.202;2023-07-29T11:45:13;28.40;54.70
17208;DHT22;8720;48.488;9.202;2023-07-29T11:47:41;28.30;54.20
17208;DHT22;8720;48.488;9.202;2023-07-29T11:50:10;28.30;54.40
17208;DHT22;8720;48.488;9.202;2023-07-29T11:52:40;28.30;54.30
17208;DHT22;8720;48.488;9.202;2023-07-29T11:55:12;28.20;54.40
17208;DHT22;8720;48.488;9.202;2023-07-29T11:57:42;28.20;53.70
17208;DHT22;8720;48.488;9.202;2023-07-29T12:00:11;28.20;53.90
17208;DHT22;8720;48.488;9.202;2023-07-29T12:02:43;28.20;53.60
17208;DHT22;8720;48.488;9.202;2023-07-29T12:05:13;28.10;53.40
17208;DHT22;8720;48.488;9.202;2023-07-29T12:07:43;28.10;53.40
17208;DHT22;8720;48.488;9.202;2023-07-29T12:10:11;28.00;52.50
17208;DHT22;8720;48.488;9.202;2023-07-29T12:12:44;28.00;53.80
17208;DHT22;8720;48.488;9.202;2023-07-29T12:15:12;27.90;52.00
17208;DHT22;8720;48.488;9.202;2023-07-29T12:17:40;27.90;54.00
17208;DHT22;8720;48.488;9.202;2023-07-29T12:20:09;27.90;53.70
17208;DHT22;8720;48.488;9.202;2023-07-29T12:22:37;28.00;53.70
17208;DHT22;8720;48.488;9.202;2023-07-29T12:25:06;28.00;53.60
17208;DHT22;8720;48.488;9.202;2023-07-29T12:27:34;28.00;52.70
17208;DHT22;8720;48.488;9.202;2023-07-29T12:30:02;28.00;53.20
17208;DHT22;8720;48.488;9.202;2023-07-29T12:32:30;28.00;53.10
17208;DHT22;8720;48.488;9.202;2023-07-29T12:34:57;28.00;53.90
17208;DHT22;8720;48.488;9.202;2023-07-29T12:37:31;28.00;53.50
17208;DHT22;8720;48.488;9.202;2023-07-29T12:39:59;28.00;52.30
17208;DHT22;8720;48.488;9.202;2023-07-29T12:42:28;28.00;53.50
17208;DHT22;8720;48.488;9.202;2023-07-29T12:44:55;28.00;53.50
17208;DHT22;8720;48.488;9.202;2023-07-29T12:47:23;28.00;54.20
17208;DHT22;8720;48.488;9.202;2023-07-29T12:49:50;28.00;53.20
17208;DHT22;8720;48.488;9.202;2023-07-29T12:52:17;28.00;53.50
17208;DHT22;8720;48.488;9.202;2023-07-29T12:54:44;28.00;53.60
17208;DHT22;8720;48.488;9.202;2023-07-29T12:57:12;28.10;53.60
17208;DHT22;8720;48.488;9.202;2023-07-29T12:59:40;28.20;53.50
17208;DHT22;8720;48.488;9.202;2023-07-29T13:02:08;28.20;53.20
17208;DHT22;8720;48.488;9.202;2023-07-29T13:04:35;28.20;53.20
17208;DHT22;8720;48.488;9.202;2023-07-29T13:07:03;28.30;53.40
17208;DHT22;8720;48.488;9.202;2023-07-29T13:09:31;28.40;53.50
17208;DHT22;8720;48.488;9.202;2023-07-29T13:11:58;28.50;53.00
17208;DHT22;8720;48.488;9.202;2023-07-29T13:14:25;28.50;52.90
17208;DHT22;8720;48.488;9.202;2023-07-29T13:16:54;28.60;52.40
17208;DHT22;8720;48.488;9.202;2023-07-29T13:19:21;28.60;51.70
17208;DHT22;8720;48.488;9.202;2023-07-29T13:21:48;28.70;52.10
17208;DHT22;8720;48.488;9.202;2023-07-29T13:24:16;28.80;52.30
17208;DHT22;8720;48.488;9.202;2023-07-29T13:26:43;28.80;52.50
17208;DHT22;8720;48.488;9.202;2023-07-29T13:29:10;28.80;52.40
17208;DHT22;8720;48.488;9.202;2023-07-29T13:31:37;28.80;52.20
17208;DHT22;8720;48.488;9.202;2023-07-29T13:34:06;28.90;51.70
17208;DHT22;8720;48.488;9.202;2023-07-29T13:36:33;28.90;51.20
17208;DHT22;8720;48.488;9.202;2023-07-29T13:39:00;28.90;51.80
17208;DHT22;8720;48.488;9.202;2023-07-29T13:41:28;28.90;51.50
17208;DHT22;8720;48.488;9.202;2023-07-29T13:43:55;28.90;51.40
17208;DHT22;8720;48.488;9.202;2023-07-29T13:46:22;28.90;52.30
17208;DHT22;8720;48.488;9.202;2023-07-29T13:48:49;28.90;51.70
17208;DHT22;8720;48.488;9.202;2023-07-29T13:51:18;28.90;51.60
17208;DHT22;8720;48.488;9.202;2023-07-29T13:53:45;29.00;51.00
17208;DHT22;8720;48.488;9.202;2023-07-29T13:56:13;29.00;51.10
17208;DHT22;8720;48.488;9.202;2023-07-29T13:58:40;29.00;51.20
17208;DHT22;8720;48.488;9.202;2023-07-29T14:01:07;29.00;51.20
17208;DHT22;8720;48.488;9.202;2023-07-29T14:03:35;29.00;51.10
17208;DHT22;8720;48.488;9.202;2023-07-29T14:06:02;29.00;50.90
17208;DHT22;8720;48.488;9.202;2023-07-29T14:08:31;29.00;50.90
17208;DHT22;8720;48.488;9.202;2023-07-29T14:10:58;29.00;50.50
17208;DHT22;8720;48.488;9.202;2023-07-29T14:13:25;29.00;50.50
17208;DHT22;8720;48.488;9.202;2023-07-29T14:15:52;29.00;50.60
17208;DHT22;8720;48.488;9.202;2023-07-29T14:18:20;29.00;50.50
17208;DHT22;8720;48.488;9.202;2023-07-29T14:20:47;29.00;50.50
17208;DHT22;8720;48.488;9.202;2023-07-29T14:23:15;29.00;50.30
17208;DHT22;8720;48.488;9.202;2023-07-29T14:25:43;29.00;50.20
17208;DHT22;8720;48.488;9.202;2023-07-29T14:28:10;29.00;50.00
17208;DHT22;8720;48.488;9.202;2023-07-29T14:30:40;29.00;50.10
17208;DHT22;8720;48.488;9.202;2023-07-29T14:33:10;29.00;50.00
17208;DHT22;8720;48.488;9.202;2023-07-29T14:35:37;29.00;50.10
17208;DHT22;8720;48.488;9.202;2023-07-29T14:38:05;29.00;49.80
17208;DHT22;8720;48.488;9.202;2023-07-29T14:40:32;29.00;49.70
17208;DHT22;8720;48.488;9.202;2023-07-29T14:43:00;29.00;49.80
17208;DHT22;8720;48.488;9.202;2023-07-29T14:45:28;28.90;49.60
17208;DHT22;8720;48.488;9.202;2023-07-29T14:47:55;28.90;49.40
17208;DHT22;8720;48.488;9.202;2023-07-29T14:50:22;28.90;49.10
17208;DHT22;8720;48.488;9.202;2023-07-29T14:52:49;28.90;49.00
17208;DHT22;8720;48.488;9.202;2023-07-29T14:55:17;28.90;49.10
17208;DHT22;8720;48.488;9.202;2023-07-29T14:57:44;28.90;49.40
17208;DHT22;8720;48.488;9.202;2023-07-29T15:00:13;28.90;49.20
17208;DHT22;8720;48.488;9.202;2023-07-29T15:02:40;28.90;48.50
17208;DHT22;8720;48.488;9.202;2023-07-29T15:05:08;28.90;48.60
17208;DHT22;8720;48.488;9.202;2023-07-29T15:07:35;28.90;48.70
17208;DHT22;8720;48.488;9.202;2023-07-29T15:10:03;28.90;48.70
17208;DHT22;8720;48.488;9.202;2023-07-29T15:12:31;28.90;48.70
17208;DHT22;8720;48.488;9.202;2023-07-29T15:14:58;28.80;48.70
17208;DHT22;8720;48.488;9.202;2023-07-29T15:17:26;28.80;48.50
17208;DHT22;8720;48.488;9.202;2023-07-29T15:19:54;28.80;48.50
17208;DHT22;8720;48.488;9.202;2023-07-29T15:22:21;28.80;48.60
17208;DHT22;8720;48.488;9.202;2023-07-29T15:24:48;28.70;48.60
17208;DHT22;8720;48.488;9.202;2023-07-29T15:27:15;28.70;48.70
17208;DHT22;8720;48.488;9.202;2023-07-29T15:29:44;28.70;48.70
17208;DHT22;8720;48.488;9.202;2023-07-29T15:32:11;28.70;48.60
17208;DHT22;8720;48.488;9.202;2023-07-29T15:34:40;28.70;48.50
17208;DHT22;8720;48.488;9.202;2023-07-29T15:37:07;28.70;48.90
17208;DHT22;8720;48.488;9.202;2023-07-29T15:39:34;28.70;48.50
17208;DHT22;8720;48.488;9.202;2023-07-29T15:42:02;28.70;48.70
17208;DHT22;8720;48.488;9.202;2023-07-29T15:44:29;28.60;48.70
17208;DHT22;8720;48.488;9.202;2023-07-29T15:46:57;28.60;48.80
17208;DHT22;8720;48.488;9.202;2023-07-29T15:49:24;28.60;48.70
17208;DHT22;8720;48.488;9.202;2023-07-29T15:51:53;28.50;48.70
17208;DHT22;8720;48.488;9.202;2023-07-29T15:54:20;28.60;48.70
17208;DHT22;8720;48.488;9.202;2023-07-29T15:56:47;28.50;48.80